sensor_id;sensor_type;location;lat;lon;timestamp;P1;durP1;ratioP1;P2;durP2;ratioP2
74833;SDS011;63361;52.384;20.930;2023-03-12T00:01:39;10.83;;;4.80;;
74833;SDS011;63361;52.384;20.930;2023-03-12T00:04:04;12.17;;;4.37;;
74833;SDS011;63361;52.384;20.930;2023-03-12T00:06:30;11.43;;;5.63;;
74833;SDS011;63361;52.384;20.930;2023-03-12T00:08:56;10.60;;;5.85;;
74833;SDS011;63361;52.384;20.930;2023-03-12T00:11:22;15.32;;;5.80;;
74833;SDS011;63361;52.384;20.930;2023-03-12T00:13:51;14.90;;;5.80;;
74833;SDS011;63361;52.384;20.930;2023-03-12T00:16:17;17.20;;;6.95;;
74833;SDS011;63361;52.384;20.930;2023-03-12T00:18:45;16.97;;;7.23;;
74833;SDS011;63361;52.384;20.930;2023-03-12T00:21:12;19.38;;;8.35;;
74833;SDS011;63361;52.384;20.930;2023-03-12T00:23:38;16.50;;;7.70;;
74833;SDS011;63361;52.384;20.930;2023-03-12T00:26:08;19.17;;;7.45;;
74833;SDS011;63361;52.384;20.930;2023-03-12T00:28:35;11.77;;;6.17;;
74833;SDS011;63361;52.384;20.930;2023-03-12T00:31:01;18.42;;;8.30;;
74833;SDS011;63361;52.384;20.930;2023-03-12T00:33:37;15.13;;;6.88;;
74833;SDS011;63361;52.384;20.930;2023-03-12T00:36:02;14.47;;;5.93;;
74833;SDS011;63361;52.384;20.930;2023-03-12T00:38:28;11.07;;;5.03;;
74833;SDS011;63361;52.384;20.930;2023-03-12T00:40:53;18.10;;;7.10;;
74833;SDS011;63361;52.384;20.930;2023-03-12T00:43:19;15.47;;;6.00;;
74833;SDS011;63361;52.384;20.930;2023-03-12T00:45:44;18.33;;;7.70;;
74833;SDS011;63361;52.384;20.930;2023-03-12T00:48:09;12.87;;;6.20;;
74833;SDS011;63361;52.384;20.930;2023-03-12T00:50:35;15.07;;;7.00;;
74833;SDS011;63361;52.384;20.930;2023-03-12T00:53:00;13.87;;;6.87;;
74833;SDS011;63361;52.384;20.930;2023-03-12T00:55:25;17.83;;;7.53;;
74833;SDS011;63361;52.384;20.930;2023-03-12T00:57:51;16.93;;;7.20;;
74833;SDS011;63361;52.384;20.930;2023-03-12T01:00:16;15.13;;;6.40;;
74833;SDS011;63361;52.384;20.930;2023-03-12T01:02:42;14.45;;;6.53;;
74833;SDS011;63361;52.384;20.930;2023-03-12T01:05:07;13.77;;;6.67;;
74833;SDS011;63361;52.384;20.930;2023-03-12T01:07:35;15.68;;;6.30;;
74833;SDS011;63361;52.384;20.930;2023-03-12T01:10:01;13.47;;;6.33;;
74833;SDS011;63361;52.384;20.930;2023-03-12T01:12:27;12.40;;;5.97;;
74833;SDS011;63361;52.384;20.930;2023-03-12T01:14:52;12.37;;;5.23;;
74833;SDS011;63361;52.384;20.930;2023-03-12T01:17:17;15.00;;;7.17;;
74833;SDS011;63361;52.384;20.930;2023-03-12T01:19:43;12.80;;;6.33;;
74833;SDS011;63361;52.384;20.930;2023-03-12T01:22:08;12.23;;;6.73;;
74833;SDS011;63361;52.384;20.930;2023-03-12T01:24:33;14.43;;;6.38;;
74833;SDS011;63361;52.384;20.930;2023-03-12T01:26:59;15.60;;;6.97;;
74833;SDS011;63361;52.384;20.930;2023-03-12T01:29:24;12.87;;;5.87;;
74833;SDS011;63361;52.384;20.930;2023-03-12T01:31:49;10.70;;;4.93;;
74833;SDS011;63361;52.384;20.930;2023-03-12T01:34:16;12.93;;;6.07;;
74833;SDS011;63361;52.384;20.930;2023-03-12T01:36:41;20.87;;;7.53;;
74833;SDS011;63361;52.384;20.930;2023-03-12T01:39:08;14.63;;;6.47;;
74833;SDS011;63361;52.384;20.930;2023-03-12T01:41:33;13.97;;;6.73;;
74833;SDS011;63361;52.384;20.930;2023-03-12T01:43:59;12.80;;;6.30;;
74833;SDS011;63361;52.384;20.930;2023-03-12T01:46:37;12.52;;;6.45;;
74833;SDS011;63361;52.384;20.930;2023-03-12T01:51:39;14.15;;;6.43;;
74833;SDS011;63361;52.384;20.930;2023-03-12T01:54:13;15.32;;;6.50;;
74833;SDS011;63361;52.384;20.930;2023-03-12T01:56:41;13.40;;;6.43;;
74833;SDS011;63361;52.384;20.930;2023-03-12T01:59:09;16.55;;;6.20;;
74833;SDS011;63361;52.384;20.930;2023-03-12T02:01:39;15.43;;;7.18;;
74833;SDS011;63361;52.384;20.930;2023-03-12T02:04:06;13.57;;;5.83;;
74833;SDS011;63361;52.384;20.930;2023-03-12T02:06:39;15.63;;;6.75;;
74833;SDS011;63361;52.384;20.930;2023-03-12T02:09:09;15.13;;;6.45;;
74833;SDS011;63361;52.384;20.930;2023-03-12T02:11:36;14.53;;;6.80;;
74833;SDS011;63361;52.384;20.930;2023-03-12T02:14:02;9.97;;;4.70;;
74833;SDS011;63361;52.384;20.930;2023-03-12T02:16:27;13.73;;;6.70;;
74833;SDS011;63361;52.384;20.930;2023-03-12T02:18:53;11.82;;;6.03;;
74833;SDS011;63361;52.384;20.930;2023-03-12T02:21:21;16.50;;;6.37;;
74833;SDS011;63361;52.384;20.930;2023-03-12T02:26:29;14.30;;;6.75;;
74833;SDS011;63361;52.384;20.930;2023-03-12T02:28:55;11.35;;;5.95;;
74833;SDS011;63361;52.384;20.930;2023-03-12T02:31:25;12.30;;;6.53;;
74833;SDS011;63361;52.384;20.930;2023-03-12T02:33:54;14.02;;;7.22;;
74833;SDS011;63361;52.384;20.930;2023-03-12T02:36:20;16.88;;;6.95;;
74833;SDS011;63361;52.384;20.930;2023-03-12T02:38:46;14.65;;;6.88;;
74833;SDS011;63361;52.384;20.930;2023-03-12T02:43:42;12.97;;;5.70;;
74833;SDS011;63361;52.384;20.930;2023-03-12T02:46:09;14.75;;;6.93;;
74833;SDS011;63361;52.384;20.930;2023-03-12T02:48:35;14.30;;;7.22;;
74833;SDS011;63361;52.384;20.930;2023-03-12T02:51:01;14.03;;;6.47;;
74833;SDS011;63361;52.384;20.930;2023-03-12T02:53:27;14.85;;;6.45;;
74833;SDS011;63361;52.384;20.930;2023-03-12T02:55:53;14.73;;;6.40;;
74833;SDS011;63361;52.384;20.930;2023-03-12T02:58:18;14.70;;;5.97;;
74833;SDS011;63361;52.384;20.930;2023-03-12T03:00:43;15.07;;;6.10;;
74833;SDS011;63361;52.384;20.930;2023-03-12T03:03:09;13.23;;;6.60;;
74833;SDS011;63361;52.384;20.930;2023-03-12T03:05:34;12.63;;;6.37;;
74833;SDS011;63361;52.384;20.930;2023-03-12T03:08:01;15.13;;;5.63;;
74833;SDS011;63361;52.384;20.930;2023-03-12T03:10:27;12.77;;;5.68;;
74833;SDS011;63361;52.384;20.930;2023-03-12T03:12:52;9.13;;;5.13;;
74833;SDS011;63361;52.384;20.930;2023-03-12T03:15:18;14.50;;;5.80;;
74833;SDS011;63361;52.384;20.930;2023-03-12T03:17:43;13.80;;;6.40;;
74833;SDS011;63361;52.384;20.930;2023-03-12T03:20:08;12.07;;;5.07;;
74833;SDS011;63361;52.384;20.930;2023-03-12T03:22:36;11.00;;;5.78;;
74833;SDS011;63361;52.384;20.930;2023-03-12T03:25:02;13.55;;;5.85;;
74833;SDS011;63361;52.384;20.930;2023-03-12T03:27:28;10.75;;;5.03;;
74833;SDS011;63361;52.384;20.930;2023-03-12T03:29:54;10.90;;;5.53;;
74833;SDS011;63361;52.384;20.930;2023-03-12T03:32:19;13.17;;;5.83;;
74833;SDS011;63361;52.384;20.930;2023-03-12T03:34:44;10.70;;;4.83;;
74833;SDS011;63361;52.384;20.930;2023-03-12T03:37:10;11.47;;;5.70;;
74833;SDS011;63361;52.384;20.930;2023-03-12T03:39:35;9.85;;;4.93;;
74833;SDS011;63361;52.384;20.930;2023-03-12T03:42:01;12.00;;;5.70;;
74833;SDS011;63361;52.384;20.930;2023-03-12T03:44:26;10.83;;;4.77;;
74833;SDS011;63361;52.384;20.930;2023-03-12T03:46:51;9.00;;;5.03;;
74833;SDS011;63361;52.384;20.930;2023-03-12T03:49:19;9.88;;;4.70;;
74833;SDS011;63361;52.384;20.930;2023-03-12T03:51:44;10.20;;;5.13;;
74833;SDS011;63361;52.384;20.930;2023-03-12T03:54:10;12.60;;;6.05;;
74833;SDS011;63361;52.384;20.930;2023-03-12T03:56:35;11.53;;;5.53;;
74833;SDS011;63361;52.384;20.930;2023-03-12T03:59:01;8.07;;;4.60;;
74833;SDS011;63361;52.384;20.930;2023-03-12T04:01:28;12.25;;;5.55;;
74833;SDS011;63361;52.384;20.930;2023-03-12T04:03:55;11.05;;;5.18;;
74833;SDS011;63361;52.384;20.930;2023-03-12T04:06:20;13.77;;;5.33;;
74833;SDS011;63361;52.384;20.930;2023-03-12T04:08:46;8.70;;;5.22;;
74833;SDS011;63361;52.384;20.930;2023-03-12T04:11:15;11.63;;;5.90;;
74833;SDS011;63361;52.384;20.930;2023-03-12T04:13:44;11.18;;;5.45;;
74833;SDS011;63361;52.384;20.930;2023-03-12T04:16:10;11.27;;;5.57;;
74833;SDS011;63361;52.384;20.930;2023-03-12T04:18:36;9.57;;;4.47;;
74833;SDS011;63361;52.384;20.930;2023-03-12T04:21:03;11.52;;;4.75;;
74833;SDS011;63361;52.384;20.930;2023-03-12T04:23:30;12.30;;;6.10;;
74833;SDS011;63361;52.384;20.930;2023-03-12T04:25:55;11.10;;;5.57;;
74833;SDS011;63361;52.384;20.930;2023-03-12T04:28:21;14.73;;;6.43;;
74833;SDS011;63361;52.384;20.930;2023-03-12T04:30:53;11.43;;;5.60;;
74833;SDS011;63361;52.384;20.930;2023-03-12T04:33:19;9.55;;;5.03;;
74833;SDS011;63361;52.384;20.930;2023-03-12T04:35:51;12.17;;;5.60;;
74833;SDS011;63361;52.384;20.930;2023-03-12T04:38:18;9.23;;;4.70;;
74833;SDS011;63361;52.384;20.930;2023-03-12T04:40:44;7.33;;;4.13;;
74833;SDS011;63361;52.384;20.930;2023-03-12T04:43:09;9.45;;;4.88;;
74833;SDS011;63361;52.384;20.930;2023-03-12T04:45:35;8.20;;;3.97;;
74833;SDS011;63361;52.384;20.930;2023-03-12T04:48:01;10.15;;;4.53;;
74833;SDS011;63361;52.384;20.930;2023-03-12T04:50:28;9.17;;;3.73;;
74833;SDS011;63361;52.384;20.930;2023-03-12T04:52:53;6.72;;;3.38;;
74833;SDS011;63361;52.384;20.930;2023-03-12T04:55:18;8.53;;;4.50;;
74833;SDS011;63361;52.384;20.930;2023-03-12T04:57:44;9.60;;;4.50;;
74833;SDS011;63361;52.384;20.930;2023-03-12T05:00:09;8.33;;;4.60;;
74833;SDS011;63361;52.384;20.930;2023-03-12T05:02:36;9.55;;;4.45;;
74833;SDS011;63361;52.384;20.930;2023-03-12T05:05:02;11.00;;;4.53;;
74833;SDS011;63361;52.384;20.930;2023-03-12T05:07:28;10.17;;;5.00;;
74833;SDS011;63361;52.384;20.930;2023-03-12T05:09:53;9.60;;;4.00;;
74833;SDS011;63361;52.384;20.930;2023-03-12T05:12:18;9.47;;;4.10;;
74833;SDS011;63361;52.384;20.930;2023-03-12T05:14:44;7.67;;;4.30;;
74833;SDS011;63361;52.384;20.930;2023-03-12T05:17:09;11.70;;;4.30;;
74833;SDS011;63361;52.384;20.930;2023-03-12T05:19:34;7.63;;;4.53;;
74833;SDS011;63361;52.384;20.930;2023-03-12T05:22:00;9.57;;;4.03;;
74833;SDS011;63361;52.384;20.930;2023-03-12T05:24:25;10.87;;;4.33;;
74833;SDS011;63361;52.384;20.930;2023-03-12T05:26:51;8.18;;;4.18;;
74833;SDS011;63361;52.384;20.930;2023-03-12T05:29:16;8.57;;;3.20;;
74833;SDS011;63361;52.384;20.930;2023-03-12T05:31:42;7.57;;;3.90;;
74833;SDS011;63361;52.384;20.930;2023-03-12T05:34:09;9.13;;;4.00;;
74833;SDS011;63361;52.384;20.930;2023-03-12T05:36:36;8.05;;;4.47;;
74833;SDS011;63361;52.384;20.930;2023-03-12T05:39:01;9.27;;;4.40;;
74833;SDS011;63361;52.384;20.930;2023-03-12T05:41:27;10.18;;;3.40;;
74833;SDS011;63361;52.384;20.930;2023-03-12T05:43:54;6.75;;;3.97;;
74833;SDS011;63361;52.384;20.930;2023-03-12T05:46:20;8.50;;;4.67;;
74833;SDS011;63361;52.384;20.930;2023-03-12T05:48:47;12.00;;;6.45;;
74833;SDS011;63361;52.384;20.930;2023-03-12T05:51:12;10.68;;;5.03;;
74833;SDS011;63361;52.384;20.930;2023-03-12T05:53:38;7.87;;;4.20;;
74833;SDS011;63361;52.384;20.930;2023-03-12T05:56:05;8.70;;;4.20;;
74833;SDS011;63361;52.384;20.930;2023-03-12T05:58:32;9.32;;;4.40;;
74833;SDS011;63361;52.384;20.930;2023-03-12T06:00:59;8.05;;;3.60;;
74833;SDS011;63361;52.384;20.930;2023-03-12T06:03:25;6.25;;;3.15;;
74833;SDS011;63361;52.384;20.930;2023-03-12T06:05:50;8.57;;;3.80;;
74833;SDS011;63361;52.384;20.930;2023-03-12T06:08:19;9.73;;;3.65;;
74833;SDS011;63361;52.384;20.930;2023-03-12T06:10:45;9.00;;;3.70;;
74833;SDS011;63361;52.384;20.930;2023-03-12T06:13:11;5.00;;;3.35;;
74833;SDS011;63361;52.384;20.930;2023-03-12T06:15:36;7.40;;;3.00;;
74833;SDS011;63361;52.384;20.930;2023-03-12T06:18:02;8.67;;;3.63;;
74833;SDS011;63361;52.384;20.930;2023-03-12T06:20:27;6.93;;;3.60;;
74833;SDS011;63361;52.384;20.930;2023-03-12T06:22:52;10.33;;;4.10;;
74833;SDS011;63361;52.384;20.930;2023-03-12T06:25:17;7.13;;;3.70;;
74833;SDS011;63361;52.384;20.930;2023-03-12T06:27:43;7.85;;;3.53;;
74833;SDS011;63361;52.384;20.930;2023-03-12T06:30:08;11.43;;;3.77;;
74833;SDS011;63361;52.384;20.930;2023-03-12T06:32:34;5.53;;;2.77;;
74833;SDS011;63361;52.384;20.930;2023-03-12T06:34:59;7.80;;;3.53;;
74833;SDS011;63361;52.384;20.930;2023-03-12T06:37:25;11.27;;;3.80;;
74833;SDS011;63361;52.384;20.930;2023-03-12T06:39:51;7.20;;;2.63;;
74833;SDS011;63361;52.384;20.930;2023-03-12T06:42:17;5.65;;;2.75;;
74833;SDS011;63361;52.384;20.930;2023-03-12T06:44:43;8.30;;;3.30;;
74833;SDS011;63361;52.384;20.930;2023-03-12T06:47:09;6.47;;;3.00;;
74833;SDS011;63361;52.384;20.930;2023-03-12T06:49:34;7.37;;;3.10;;
74833;SDS011;63361;52.384;20.930;2023-03-12T06:52:00;10.83;;;3.50;;
74833;SDS011;63361;52.384;20.930;2023-03-12T06:54:25;5.97;;;2.60;;
74833;SDS011;63361;52.384;20.930;2023-03-12T06:56:51;7.83;;;2.57;;
74833;SDS011;63361;52.384;20.930;2023-03-12T06:59:17;8.90;;;2.80;;
74833;SDS011;63361;52.384;20.930;2023-03-12T07:01:45;6.45;;;2.50;;
74833;SDS011;63361;52.384;20.930;2023-03-12T07:04:10;5.23;;;2.60;;
74833;SDS011;63361;52.384;20.930;2023-03-12T07:06:36;7.10;;;2.43;;
74833;SDS011;63361;52.384;20.930;2023-03-12T07:09:01;4.40;;;1.87;;
74833;SDS011;63361;52.384;20.930;2023-03-12T07:11:27;5.00;;;2.00;;
74833;SDS011;63361;52.384;20.930;2023-03-12T07:13:52;3.60;;;1.20;;
74833;SDS011;63361;52.384;20.930;2023-03-12T07:16:17;3.70;;;1.67;;
74833;SDS011;63361;52.384;20.930;2023-03-12T07:18:43;5.80;;;1.77;;
74833;SDS011;63361;52.384;20.930;2023-03-12T07:21:08;5.37;;;1.73;;
74833;SDS011;63361;52.384;20.930;2023-03-12T07:23:33;4.83;;;1.73;;
74833;SDS011;63361;52.384;20.930;2023-03-12T07:25:59;5.68;;;2.05;;
74833;SDS011;63361;52.384;20.930;2023-03-12T07:28:24;4.60;;;1.90;;
74833;SDS011;63361;52.384;20.930;2023-03-12T07:30:49;6.43;;;2.60;;
74833;SDS011;63361;52.384;20.930;2023-03-12T07:33:15;5.00;;;2.40;;
74833;SDS011;63361;52.384;20.930;2023-03-12T07:35:43;4.60;;;2.05;;
74833;SDS011;63361;52.384;20.930;2023-03-12T07:38:09;4.57;;;2.10;;
74833;SDS011;63361;52.384;20.930;2023-03-12T07:40:35;8.13;;;1.90;;
74833;SDS011;63361;52.384;20.930;2023-03-12T07:43:00;4.23;;;1.93;;
74833;SDS011;63361;52.384;20.930;2023-03-12T07:45:26;4.70;;;1.52;;
74833;SDS011;63361;52.384;20.930;2023-03-12T07:47:52;5.67;;;2.00;;
74833;SDS011;63361;52.384;20.930;2023-03-12T07:50:17;3.30;;;1.33;;
74833;SDS011;63361;52.384;20.930;2023-03-12T07:52:44;6.40;;;2.10;;
74833;SDS011;63361;52.384;20.930;2023-03-12T07:55:10;8.15;;;2.10;;
74833;SDS011;63361;52.384;20.930;2023-03-12T07:57:36;6.25;;;2.05;;
74833;SDS011;63361;52.384;20.930;2023-03-12T08:00:02;4.03;;;1.63;;
74833;SDS011;63361;52.384;20.930;2023-03-12T08:02:31;7.20;;;1.67;;
74833;SDS011;63361;52.384;20.930;2023-03-12T08:04:56;5.47;;;1.77;;
74833;SDS011;63361;52.384;20.930;2023-03-12T08:07:25;6.10;;;1.90;;
74833;SDS011;63361;52.384;20.930;2023-03-12T08:09:56;4.78;;;1.60;;
74833;SDS011;63361;52.384;20.930;2023-03-12T08:12:22;4.75;;;2.05;;
74833;SDS011;63361;52.384;20.930;2023-03-12T08:14:47;6.33;;;1.70;;
74833;SDS011;63361;52.384;20.930;2023-03-12T08:17:13;4.40;;;1.37;;
74833;SDS011;63361;52.384;20.930;2023-03-12T08:19:38;3.67;;;1.50;;
74833;SDS011;63361;52.384;20.930;2023-03-12T08:22:04;4.53;;;1.30;;
74833;SDS011;63361;52.384;20.930;2023-03-12T08:24:30;5.78;;;1.80;;
74833;SDS011;63361;52.384;20.930;2023-03-12T08:26:56;5.70;;;1.60;;
74833;SDS011;63361;52.384;20.930;2023-03-12T08:29:21;5.73;;;1.90;;
74833;SDS011;63361;52.384;20.930;2023-03-12T08:31:46;6.07;;;1.80;;
74833;SDS011;63361;52.384;20.930;2023-03-12T08:34:11;6.97;;;1.92;;
74833;SDS011;63361;52.384;20.930;2023-03-12T08:36:37;4.43;;;1.50;;
74833;SDS011;63361;52.384;20.930;2023-03-12T08:39:03;5.57;;;1.40;;
74833;SDS011;63361;52.384;20.930;2023-03-12T08:41:28;5.63;;;2.08;;
74833;SDS011;63361;52.384;20.930;2023-03-12T08:43:54;5.30;;;1.80;;
74833;SDS011;63361;52.384;20.930;2023-03-12T08:46:19;7.60;;;1.97;;
74833;SDS011;63361;52.384;20.930;2023-03-12T08:48:45;3.40;;;1.40;;
74833;SDS011;63361;52.384;20.930;2023-03-12T08:51:10;4.25;;;1.20;;
74833;SDS011;63361;52.384;20.930;2023-03-12T08:53:36;4.27;;;1.30;;
74833;SDS011;63361;52.384;20.930;2023-03-12T08:56:01;5.13;;;1.37;;
74833;SDS011;63361;52.384;20.930;2023-03-12T08:58:28;7.72;;;1.40;;
74833;SDS011;63361;52.384;20.930;2023-03-12T09:00:54;5.13;;;1.40;;
74833;SDS011;63361;52.384;20.930;2023-03-12T09:03:21;4.40;;;1.53;;
74833;SDS011;63361;52.384;20.930;2023-03-12T09:05:47;4.53;;;1.60;;
74833;SDS011;63361;52.384;20.930;2023-03-12T09:08:14;3.72;;;1.20;;
74833;SDS011;63361;52.384;20.930;2023-03-12T09:10:45;5.80;;;1.50;;
74833;SDS011;63361;52.384;20.930;2023-03-12T09:13:12;8.45;;;1.98;;
74833;SDS011;63361;52.384;20.930;2023-03-12T09:15:38;3.90;;;1.53;;
74833;SDS011;63361;52.384;20.930;2023-03-12T09:18:03;4.67;;;1.30;;
74833;SDS011;63361;52.384;20.930;2023-03-12T09:20:28;4.60;;;1.70;;
74833;SDS011;63361;52.384;20.930;2023-03-12T09:22:54;4.30;;;1.90;;
74833;SDS011;63361;52.384;20.930;2023-03-12T09:25:19;8.73;;;2.37;;
74833;SDS011;63361;52.384;20.930;2023-03-12T09:27:46;5.18;;;1.70;;
74833;SDS011;63361;52.384;20.930;2023-03-12T09:30:13;6.07;;;1.23;;
74833;SDS011;63361;52.384;20.930;2023-03-12T09:32:41;2.97;;;1.00;;
74833;SDS011;63361;52.384;20.930;2023-03-12T09:35:08;4.13;;;1.42;;
74833;SDS011;63361;52.384;20.930;2023-03-12T09:37:34;4.07;;;1.40;;
74833;SDS011;63361;52.384;20.930;2023-03-12T09:39:59;5.50;;;1.50;;
74833;SDS011;63361;52.384;20.930;2023-03-12T09:42:42;4.25;;;1.20;;
74833;SDS011;63361;52.384;20.930;2023-03-12T09:45:25;6.00;;;2.17;;
74833;SDS011;63361;52.384;20.930;2023-03-12T09:47:57;3.97;;;1.40;;
74833;SDS011;63361;52.384;20.930;2023-03-12T09:50:26;9.00;;;2.80;;
74833;SDS011;63361;52.384;20.930;2023-03-12T09:52:58;4.55;;;1.20;;
74833;SDS011;63361;52.384;20.930;2023-03-12T09:55:27;4.05;;;1.70;;
74833;SDS011;63361;52.384;20.930;2023-03-12T09:57:59;4.95;;;1.52;;
74833;SDS011;63361;52.384;20.930;2023-03-12T10:00:31;4.83;;;1.50;;
74833;SDS011;63361;52.384;20.930;2023-03-12T10:10:54;6.72;;;2.28;;
74833;SDS011;63361;52.384;20.930;2023-03-12T10:13:35;5.28;;;1.60;;
74833;SDS011;63361;52.384;20.930;2023-03-12T10:18:55;5.20;;;1.57;;
74833;SDS011;63361;52.384;20.930;2023-03-12T10:21:50;4.03;;;1.33;;
74833;SDS011;63361;52.384;20.930;2023-03-12T10:26:54;4.88;;;1.50;;
74833;SDS011;63361;52.384;20.930;2023-03-12T10:34:49;5.30;;;1.23;;
74833;SDS011;63361;52.384;20.930;2023-03-12T10:39:52;4.00;;;1.48;;
74833;SDS011;63361;52.384;20.930;2023-03-12T10:42:20;3.85;;;1.27;;
74833;SDS011;63361;52.384;20.930;2023-03-12T10:44:50;5.33;;;1.60;;
74833;SDS011;63361;52.384;20.930;2023-03-12T10:50:17;4.90;;;1.40;;
74833;SDS011;63361;52.384;20.930;2023-03-12T10:52:48;4.25;;;1.30;;
74833;SDS011;63361;52.384;20.930;2023-03-12T10:55:21;6.40;;;1.33;;
74833;SDS011;63361;52.384;20.930;2023-03-12T10:57:53;7.80;;;1.47;;
74833;SDS011;63361;52.384;20.930;2023-03-12T11:00:23;4.03;;;1.30;;
74833;SDS011;63361;52.384;20.930;2023-03-12T11:02:58;5.38;;;1.48;;
74833;SDS011;63361;52.384;20.930;2023-03-12T11:05:35;6.93;;;2.58;;
74833;SDS011;63361;52.384;20.930;2023-03-12T11:08:26;6.40;;;1.85;;
74833;SDS011;63361;52.384;20.930;2023-03-12T11:10:57;5.10;;;1.97;;
74833;SDS011;63361;52.384;20.930;2023-03-12T11:16:01;5.00;;;1.92;;
74833;SDS011;63361;52.384;20.930;2023-03-12T11:18:52;5.32;;;1.55;;
74833;SDS011;63361;52.384;20.930;2023-03-12T11:21:20;6.10;;;2.03;;
74833;SDS011;63361;52.384;20.930;2023-03-12T11:26:21;5.35;;;1.77;;
74833;SDS011;63361;52.384;20.930;2023-03-12T11:31:37;4.50;;;1.50;;
74833;SDS011;63361;52.384;20.930;2023-03-12T11:34:11;4.80;;;1.40;;
74833;SDS011;63361;52.384;20.930;2023-03-12T11:53:18;4.07;;;1.30;;
74833;SDS011;63361;52.384;20.930;2023-03-12T12:01:48;4.85;;;1.60;;
74833;SDS011;63361;52.384;20.930;2023-03-12T12:10:01;7.18;;;2.53;;
74833;SDS011;63361;52.384;20.930;2023-03-12T12:24:13;7.28;;;2.10;;
74833;SDS011;63361;52.384;20.930;2023-03-12T12:41:14;4.88;;;1.27;;
74833;SDS011;63361;52.384;20.930;2023-03-12T12:43:52;5.43;;;1.60;;
74833;SDS011;63361;52.384;20.930;2023-03-12T12:46:22;7.07;;;1.60;;
74833;SDS011;63361;52.384;20.930;2023-03-12T12:48:53;6.07;;;1.65;;
74833;SDS011;63361;52.384;20.930;2023-03-12T12:51:25;7.10;;;2.10;;
74833;SDS011;63361;52.384;20.930;2023-03-12T12:53:58;4.30;;;1.33;;
74833;SDS011;63361;52.384;20.930;2023-03-12T12:56:53;7.65;;;1.63;;
74833;SDS011;63361;52.384;20.930;2023-03-12T12:59:24;7.23;;;1.87;;
74833;SDS011;63361;52.384;20.930;2023-03-12T13:02:01;7.47;;;2.20;;
74833;SDS011;63361;52.384;20.930;2023-03-12T13:04:37;8.20;;;2.00;;
74833;SDS011;63361;52.384;20.930;2023-03-12T13:12:10;4.07;;;1.33;;
74833;SDS011;63361;52.384;20.930;2023-03-12T13:14:51;3.40;;;1.20;;
74833;SDS011;63361;52.384;20.930;2023-03-12T13:19:52;6.25;;;1.55;;
74833;SDS011;63361;52.384;20.930;2023-03-12T13:27:43;3.47;;;1.27;;
74833;SDS011;63361;52.384;20.930;2023-03-12T13:43:15;4.68;;;1.40;;
74833;SDS011;63361;52.384;20.930;2023-03-12T13:45:57;3.97;;;1.10;;
74833;SDS011;63361;52.384;20.930;2023-03-12T13:48:25;7.13;;;1.80;;
74833;SDS011;63361;52.384;20.930;2023-03-12T13:50:55;4.93;;;1.40;;
74833;SDS011;63361;52.384;20.930;2023-03-12T13:53:27;5.25;;;1.40;;
74833;SDS011;63361;52.384;20.930;2023-03-12T13:55:59;4.47;;;1.58;;
74833;SDS011;63361;52.384;20.930;2023-03-12T13:58:28;6.03;;;1.57;;
74833;SDS011;63361;52.384;20.930;2023-03-12T14:01:01;6.05;;;1.63;;
74833;SDS011;63361;52.384;20.930;2023-03-12T14:03:34;5.72;;;1.50;;
74833;SDS011;63361;52.384;20.930;2023-03-12T14:11:34;5.27;;;1.20;;
74833;SDS011;63361;52.384;20.930;2023-03-12T14:16:39;4.65;;;1.30;;
74833;SDS011;63361;52.384;20.930;2023-03-12T14:19:10;4.68;;;1.40;;
74833;SDS011;63361;52.384;20.930;2023-03-12T14:21:38;7.70;;;1.77;;
74833;SDS011;63361;52.384;20.930;2023-03-12T14:24:11;7.27;;;1.90;;
74833;SDS011;63361;52.384;20.930;2023-03-12T14:26:46;5.88;;;1.88;;
74833;SDS011;63361;52.384;20.930;2023-03-12T14:29:19;4.80;;;1.50;;
74833;SDS011;63361;52.384;20.930;2023-03-12T14:31:49;5.55;;;1.73;;
74833;SDS011;63361;52.384;20.930;2023-03-12T14:34:22;7.85;;;1.80;;
74833;SDS011;63361;52.384;20.930;2023-03-12T14:36:57;8.10;;;2.17;;
74833;SDS011;63361;52.384;20.930;2023-03-12T14:39:43;6.47;;;1.73;;
74833;SDS011;63361;52.384;20.930;2023-03-12T14:42:20;5.00;;;1.75;;
74833;SDS011;63361;52.384;20.930;2023-03-12T14:45:38;4.50;;;1.60;;
74833;SDS011;63361;52.384;20.930;2023-03-12T14:47:42;5.45;;;1.70;;
74833;SDS011;63361;52.384;20.930;2023-03-12T14:50:15;3.23;;;1.10;;
74833;SDS011;63361;52.384;20.930;2023-03-12T14:52:41;8.60;;;1.77;;
74833;SDS011;63361;52.384;20.930;2023-03-12T14:55:10;6.23;;;2.23;;
74833;SDS011;63361;52.384;20.930;2023-03-12T14:57:38;10.50;;;3.03;;
74833;SDS011;63361;52.384;20.930;2023-03-12T15:00:04;9.93;;;3.43;;
74833;SDS011;63361;52.384;20.930;2023-03-12T15:02:38;8.82;;;2.67;;
74833;SDS011;63361;52.384;20.930;2023-03-12T15:05:13;9.70;;;2.70;;
74833;SDS011;63361;52.384;20.930;2023-03-12T15:07:41;9.48;;;2.58;;
74833;SDS011;63361;52.384;20.930;2023-03-12T15:10:14;9.70;;;2.60;;
74833;SDS011;63361;52.384;20.930;2023-03-12T15:12:48;7.28;;;2.30;;
74833;SDS011;63361;52.384;20.930;2023-03-12T15:15:33;11.40;;;3.00;;
74833;SDS011;63361;52.384;20.930;2023-03-12T15:18:05;5.38;;;1.77;;
74833;SDS011;63361;52.384;20.930;2023-03-12T15:20:35;7.05;;;2.33;;
74833;SDS011;63361;52.384;20.930;2023-03-12T15:23:01;7.35;;;2.38;;
74833;SDS011;63361;52.384;20.930;2023-03-12T15:25:28;6.80;;;2.00;;
74833;SDS011;63361;52.384;20.930;2023-03-12T15:30:39;5.78;;;2.17;;
74833;SDS011;63361;52.384;20.930;2023-03-12T15:35:41;5.55;;;2.30;;
74833;SDS011;63361;52.384;20.930;2023-03-12T15:38:21;6.20;;;2.30;;
74833;SDS011;63361;52.384;20.930;2023-03-12T15:40:48;7.97;;;2.42;;
74833;SDS011;63361;52.384;20.930;2023-03-12T15:43:19;5.88;;;2.50;;
74833;SDS011;63361;52.384;20.930;2023-03-12T15:45:45;6.82;;;1.88;;
74833;SDS011;63361;52.384;20.930;2023-03-12T15:50:46;5.87;;;2.00;;
74833;SDS011;63361;52.384;20.930;2023-03-12T15:55:40;6.23;;;2.30;;
74833;SDS011;63361;52.384;20.930;2023-03-12T15:58:25;6.13;;;2.17;;
74833;SDS011;63361;52.384;20.930;2023-03-12T16:00:53;6.88;;;2.75;;
74833;SDS011;63361;52.384;20.930;2023-03-12T16:03:29;7.30;;;2.47;;
74833;SDS011;63361;52.384;20.930;2023-03-12T16:05:54;5.77;;;2.33;;
74833;SDS011;63361;52.384;20.930;2023-03-12T16:08:21;5.80;;;2.38;;
74833;SDS011;63361;52.384;20.930;2023-03-12T16:10:51;8.30;;;2.73;;
74833;SDS011;63361;52.384;20.930;2023-03-12T16:13:20;9.65;;;2.75;;
74833;SDS011;63361;52.384;20.930;2023-03-12T16:15:51;7.15;;;2.80;;
74833;SDS011;63361;52.384;20.930;2023-03-12T16:18:18;7.27;;;2.83;;
74833;SDS011;63361;52.384;20.930;2023-03-12T16:20:44;11.57;;;3.13;;
74833;SDS011;63361;52.384;20.930;2023-03-12T16:23:11;10.70;;;3.17;;
74833;SDS011;63361;52.384;20.930;2023-03-12T16:25:37;10.90;;;2.95;;
74833;SDS011;63361;52.384;20.930;2023-03-12T16:28:04;9.23;;;3.25;;
74833;SDS011;63361;52.384;20.930;2023-03-12T16:30:34;9.17;;;2.93;;
74833;SDS011;63361;52.384;20.930;2023-03-12T16:33:02;8.35;;;2.65;;
74833;SDS011;63361;52.384;20.930;2023-03-12T16:35:29;8.95;;;3.15;;
74833;SDS011;63361;52.384;20.930;2023-03-12T16:37:56;11.18;;;3.10;;
74833;SDS011;63361;52.384;20.930;2023-03-12T16:40:22;8.27;;;2.50;;
74833;SDS011;63361;52.384;20.930;2023-03-12T16:42:49;6.53;;;2.53;;
74833;SDS011;63361;52.384;20.930;2023-03-12T16:45:17;11.05;;;3.10;;
74833;SDS011;63361;52.384;20.930;2023-03-12T16:47:43;10.60;;;3.30;;
74833;SDS011;63361;52.384;20.930;2023-03-12T16:50:16;9.60;;;3.10;;
74833;SDS011;63361;52.384;20.930;2023-03-12T16:52:43;8.63;;;2.90;;
74833;SDS011;63361;52.384;20.930;2023-03-12T16:55:11;8.10;;;2.92;;